地図

経路データ

SID SEASON NUMBER BASIN SUBBASIN NAME ISO_TIME NATURE LAT LON WMO_WIND WMO_PRES WMO_AGENCY TRACK_TYPE DIST2LAND LANDFALL IFLAG USA_AGENCY USA_ATCF_ID USA_LAT USA_LON USA_RECORD USA_STATUS USA_WIND USA_PRES USA_SSHS USA_R34_NE USA_R34_SE USA_R34_SW USA_R34_NW USA_R50_NE USA_R50_SE USA_R50_SW USA_R50_NW USA_R64_NE USA_R64_SE USA_R64_SW USA_R64_NW USA_POCI USA_ROCI USA_RMW USA_EYE TOKYO_LAT TOKYO_LON TOKYO_GRADE TOKYO_WIND TOKYO_PRES TOKYO_R50_DIR TOKYO_R50_LONG TOKYO_R50_SHORT TOKYO_R30_DIR TOKYO_R30_LONG TOKYO_R30_SHORT TOKYO_LAND CMA_LAT CMA_LON CMA_CAT CMA_WIND CMA_PRES HKO_LAT HKO_LON HKO_CAT HKO_WIND HKO_PRES NEWDELHI_LAT NEWDELHI_LON NEWDELHI_GRADE NEWDELHI_WIND NEWDELHI_PRES NEWDELHI_CI NEWDELHI_DP NEWDELHI_POCI REUNION_LAT REUNION_LON REUNION_TYPE REUNION_WIND REUNION_PRES REUNION_TNUM REUNION_CI REUNION_RMW REUNION_R34_NE REUNION_R34_SE REUNION_R34_SW REUNION_R34_NW REUNION_R50_NE REUNION_R50_SE REUNION_R50_SW REUNION_R50_NW REUNION_R64_NE REUNION_R64_SE REUNION_R64_SW REUNION_R64_NW BOM_LAT BOM_LON BOM_TYPE BOM_WIND BOM_PRES BOM_TNUM BOM_CI BOM_RMW BOM_R34_NE BOM_R34_SE BOM_R34_SW BOM_R34_NW BOM_R50_NE BOM_R50_SE BOM_R50_SW BOM_R50_NW BOM_R64_NE BOM_R64_SE BOM_R64_SW BOM_R64_NW BOM_ROCI BOM_POCI BOM_EYE BOM_POS_METHOD BOM_PRES_METHOD NADI_LAT NADI_LON NADI_CAT NADI_WIND NADI_PRES WELLINGTON_LAT WELLINGTON_LON WELLINGTON_WIND WELLINGTON_PRES DS824_LAT DS824_LON DS824_STAGE DS824_WIND DS824_PRES TD9636_LAT TD9636_LON TD9636_STAGE TD9636_WIND TD9636_PRES TD9635_LAT TD9635_LON TD9635_WIND TD9635_PRES TD9635_ROCI NEUMANN_LAT NEUMANN_LON NEUMANN_CLASS NEUMANN_WIND NEUMANN_PRES MLC_LAT MLC_LON MLC_CLASS MLC_WIND MLC_PRES USA_GUST BOM_GUST BOM_GUST_PER REUNION_GUST REUNION_GUST_PER USA_SEAHGT USA_SEARAD_NE USA_SEARAD_SE USA_SEARAD_SW USA_SEARAD_NW STORM_SPEED STORM_DIR
1966001S17123 1966 1 SI WA NOT_NAMED 1966-01-01 09:00:00 TS -16.8241 122.837 main 0 0 ______________ -1 8 231
1966001S17123 1966 1 SI WA NOT_NAMED 1966-01-01 11:00:00 TS -17.0000 122.609 main 0 0 __________O___ -1 -17.0000 122.600 7 9 230
1966001S17123 1966 1 SI WA NOT_NAMED 1966-01-01 12:00:00 TS -17.0996 122.491 main 0 0 O________OP___ jtwc_sh SH051966 -17.1000 122.500 -1 -17.1000 122.500 TC -17.1219 122.474 7 9 228
1966001S17123 1966 1 SI WA NOT_NAMED 1966-01-01 13:00:00 TS -17.2065 122.370 main 0 0 P________PP___ SH051966 -17.2178 122.384 -1 -17.2178 122.384 TC -17.2432 122.348 7 10 226
1966001S17123 1966 1 SI WA NOT_NAMED 1966-01-01 15:00:00 TS -17.4371 122.129 main 10 10 P________PP___ SH051966 -17.4526 122.150 -1 -17.4526 122.150 TC -17.4816 122.101 7 10 224
1966001S17123 1966 1 SI WA NOT_NAMED 1966-01-01 18:00:00 TS -17.7911 121.786 main 38 38 O________OP___ jtwc_sh SH051966 -17.8000 121.800 -1 -17.8000 121.800 TC -17.8207 121.756 7 9 223
1966001S17123 1966 1 SI WA NOT_NAMED 1966-01-01 21:00:00 TS -18.1215 121.462 main 53 53 P________PP___ SH051966 -18.1300 121.463 -1 -18.1300 121.463 TC -18.1244 121.460 7 9 222
1966001S17123 1966 1 SI WA NOT_NAMED 1966-01-01 23:00:00 TS -18.3132 121.283 main 53 53 P________PO___ SH051966 -18.3198 121.275 -1 -18.3198 121.275 TC -18.3000 121.300 7 7 221
1966001S17123 1966 1 SI WA NOT_NAMED 1966-01-02 00:00:00 TS -18.3928 121.211 main 57 57 O________OP___ jtwc_sh SH051966 -18.4000 121.200 -1 -18.4000 121.200 TC -18.3783 121.234 7 6 221
1966001S17123 1966 1 SI WA NOT_NAMED 1966-01-02 01:00:00 TS -18.4599 121.153 main 53 53 P________PP___ SH051966 -18.4645 121.141 -1 -18.4645 121.141 TC -18.4507 121.176 7 4 218
1966001S17123 1966 1 SI WA NOT_NAMED 1966-01-02 03:00:00 TS -18.5701 121.070 main 63 63 P________PP___ SH051966 -18.5649 121.062 -1 -18.5649 121.062 TC -18.5803 121.084 7 4 210
1966001S17123 1966 1 SI WA NOT_NAMED 1966-01-02 06:00:00 TS -18.7159 120.997 main 69 53 O________OP___ jtwc_sh SH051966 -18.7000 121.000 -1 -18.7000 121.000 TC -18.7477 120.990 7 4 200
1966001S17123 1966 1 SI WA NOT_NAMED 1966-01-02 09:00:00 TS -18.8996 120.939 main 61 53 P________PP___ SH051966 -18.9000 120.942 -1 -18.9000 120.942 TC -18.8989 120.931 7 4 195
1966001S17123 1966 1 SI WA NOT_NAMED 1966-01-02 11:00:00 TS -19.0243 120.909 main 53 46 P________PO___ SH051966 -19.0364 120.914 -1 -19.0364 120.914 TC -19.0000 120.900 7 4 195
1966001S17123 1966 1 SI WA NOT_NAMED 1966-01-02 12:00:00 TS -19.0791 120.890 main 46 38 O________OP___ jtwc_sh SH051966 -19.1000 120.900 -1 -19.1000 120.900 TC -19.0374 120.869 7 3 203
1966001S17123 1966 1 SI WA NOT_NAMED 1966-01-02 15:00:00 TS -19.2137 120.828 main 45 35 P________PP___ SH051966 -19.2500 120.850 -1 -19.2500 120.850 TC -19.1410 120.785 7 3 202
1966001S17123 1966 1 SI WA NOT_NAMED 1966-01-02 18:00:00 TS -19.3576 120.774 main 24 22 O________OP___ jtwc_sh SH051966 -19.4000 120.800 -1 -19.4000 120.800 TC -19.2729 120.723 7 3 199
1966001S17123 1966 1 SI WA NOT_NAMED 1966-01-02 21:00:00 TS -19.5221 120.716 main 22 0 P________PP___ SH051966 -19.5400 120.728 -1 -19.5400 120.728 TC -19.4863 120.694 7 4 191
1966001S17123 1966 1 SI WA NOT_NAMED 1966-01-02 23:00:00 TS -19.6938 120.700 main 0 0 P________PO___ SH051966 -19.6907 120.700 -1 -19.6907 120.700 TC -19.7000 120.700 7 6 183
1966001S17123 1966 1 SI WA NOT_NAMED 1966-01-03 00:00:00 TS -19.8123 120.710 main 0 0 O________OP___ jtwc_sh SH051966 -19.8000 120.700 -1 -19.8000 120.700 TC -19.8369 120.729 7 9 171
1966001S17123 1966 1 SI WA NOT_NAMED 1966-01-03 03:00:00 TS -20.2963 120.803 main 0 0 P________PP___ SH051966 -20.2750 120.777 -1 -20.2750 120.777 TC -20.3387 120.854 7 11 169
1966001S17123 1966 1 SI WA NOT_NAMED 1966-01-03 06:00:00 TS -20.9160 120.931 main 0 0 O________OP___ jtwc_sh SH051966 -20.9000 120.900 -1 -20.9000 120.900 TC -20.9479 120.994 7 13 170
1966001S17123 1966 1 SI WA NOT_NAMED 1966-01-03 09:00:00 TS -21.5940 121.055 main 0 0 P________PP___ SH051966 -21.5775 121.037 -1 -21.5775 121.037 TC -21.6269 121.090 7 14 172
1966001S17123 1966 1 SI WA NOT_NAMED 1966-01-03 11:00:00 TS -22.0725 121.097 main 0 0 P________PO___ SH051966 -22.0588 121.095 -1 -22.0588 121.095 TC -22.1000 121.100 7 15 176
1966001S17123 1966 1 SI WA NOT_NAMED 1966-01-03 12:00:00 TS -22.3155 121.093 main 0 0 O________OP___ jtwc_sh SH051966 -22.3000 121.100 -1 -22.3000 121.100 TC -22.3387 121.083 7 15 187
1966001S17123 1966 1 SI WA NOT_NAMED 1966-01-03 15:00:00 TS -23.0335 120.974 main 0 0 P________PP___ SH051966 -23.0076 121.001 -1 -23.0076 121.001 TC -23.0595 120.948 7 15 192
1966001S17123 1966 1 SI WA NOT_NAMED 1966-01-03 18:00:00 TS -23.7512 120.748 main 0 0 O________OP___ jtwc_sh SH051966 -23.7000 120.800 -1 -23.7000 120.800 TC -23.7853 120.714 7 16 199
1966001S17123 1966 1 SI WA NOT_NAMED 1966-01-03 21:00:00 NR -24.5139 120.416 main 0 0 __________P___ SH051966 -1 TC -24.5139 120.416 7 16 202
1966001S17123 1966 1 SI WA NOT_NAMED 1966-01-03 23:00:00 NR -25.0000 120.200 main 0 __________O___ SH051966 -1 TC -25.0000 120.200 7 16 202

IBTrACS Databaseについて

本データベースは、米国NOAAが公開する1842年以降の世界の熱帯低気圧のベストトラックデータアーカイブInternational Best Track Archive for Climate Stewardship (IBTrACS)を、ウェブで閲覧しやすい形式に変換したものです。

最終更新日:2021-12-08